Time;durP1;ratioP1;P1;durP2;ratioP2;P2;SDS_P1;SDS_P2;PMS_P1;PMS_P2;Temp;Humidity;BMP_temperature;BMP_pressure;BME280_temperature;BME280_humidity;BME280_pressure;Samples;Min_cycle;Max_cycle;Signal;HPM_P1;HPM_P2
2022/12/10 00:00:26;;;;;;;55.38;21.05;;;;;;;0.16;100.00;97786.06;4209246;34;20070;-73
2022/12/10 00:03:13;;;;;;;59.65;23.00;;;;;;;0.13;100.00;97775.94;4209021;34;20082;-74
2022/12/10 00:05:40;;;;;;;63.70;21.67;;;;;;;0.44;100.00;97816.66;4210581;34;20065;-75
2022/12/10 00:08:07;;;;;;;41.00;17.12;;;;;;;0.41;100.00;97814.44;4209316;34;20047;-74
2022/12/10 00:10:33;;;;;;;53.50;19.48;;;;;;;0.19;100.00;97806.81;4211196;34;20124;-74
2022/12/10 00:13:00;;;;;;;55.40;19.17;;;;;;;0.32;100.00;97822.66;4224376;34;20043;-73
2022/12/10 00:15:27;;;;;;;57.72;19.95;;;;;;;0.38;100.00;97828.13;4222927;34;20215;-74
2022/12/10 00:17:53;;;;;;;54.40;18.33;;;;;;;0.32;100.00;97822.66;4224291;34;20113;-74
2022/12/10 00:20:20;;;;;;;50.85;19.10;;;;;;;0.52;100.00;97824.34;4222384;34;20110;-73
2022/12/10 00:22:47;;;;;;;47.33;18.02;;;;;;;0.32;100.00;97833.25;4236646;33;20145;-73
2022/12/10 00:25:13;;;;;;;43.65;17.08;;;;;;;0.08;100.00;97788.97;4224971;34;20096;-74
2022/12/10 00:27:39;;;;;;;49.05;18.27;;;;;;;0.39;100.00;97824.44;4224246;33;20069;-73
2022/12/10 00:30:06;;;;;;;53.08;18.23;;;;;;;0.33;100.00;97797.78;4236046;33;20042;-73
2022/12/10 00:32:33;;;;;;;54.13;17.52;;;;;;;0.25;100.00;97790.09;4239509;33;20199;-73
2022/12/10 00:34:59;;;;;;;48.20;18.62;;;;;;;0.30;100.00;97808.81;4238167;33;20084;-74
2022/12/10 00:37:26;;;;;;;52.13;19.35;;;;;;;0.52;100.00;97821.72;4224274;34;20047;-73
2022/12/10 00:39:53;;;;;;;53.00;20.65;;;;;;;0.64;100.00;97814.69;4226044;34;20091;-73
2022/12/10 00:42:19;;;;;;;43.22;14.75;;;;;;;0.36;100.00;97786.75;4223058;34;20068;-73
2022/12/10 00:44:46;;;;;;;49.88;18.85;;;;;;;0.51;100.00;97820.91;4225575;34;20460;-74
2022/12/10 00:47:12;;;;;;;52.08;18.08;;;;;;;0.45;100.00;97813.81;4210796;34;20039;-74
2022/12/10 00:49:38;;;;;;;44.72;15.13;;;;;;;0.49;100.00;97780.56;4197896;34;20031;-73
2022/12/10 00:52:05;;;;;;;52.92;19.65;;;;;;;0.67;100.00;97818.75;4196808;34;20073;-74
2022/12/10 00:54:31;;;;;;;40.63;16.83;;;;;;;0.70;100.00;97799.75;4194849;34;20036;-73
2022/12/10 00:56:58;;;;;;;52.40;17.58;;;;;;;0.58;100.00;97810.25;4196347;34;20482;-73
2022/12/10 00:59:24;;;;;;;56.65;20.08;;;;;;;0.60;100.00;97808.19;4196947;34;20044;-73
2022/12/10 03:00:16;;;;;;;53.77;17.03;;;;;;;0.81;100.00;97803.56;5062550;27;20052;31
2022/12/10 03:03:03;;;;;;;44.28;16.55;;;;;;;0.81;100.00;97803.56;4248143;33;20050;-74
2022/12/10 03:05:59;;;;;;;44.70;16.33;;;;;;;0.69;100.00;97775.13;4252256;33;20071;-74
2022/12/10 03:08:47;;;;;;;48.83;17.30;;;;;;;0.79;100.00;97800.31;4253710;33;20054;-74
2022/12/10 03:11:22;;;;;;;41.70;13.95;;;;;;;0.71;100.00;97796.91;4254031;33;20058;-73
2022/12/10 03:14:11;;;;;;;45.72;15.80;;;;;;;0.58;100.00;97799.66;4254211;33;20046;-75
2022/12/10 03:16:42;;;;;;;46.83;17.33;;;;;;;0.64;100.00;97798.81;4252153;33;20120;-74
2022/12/10 03:19:13;;;;;;;60.42;19.00;;;;;;;0.71;100.00;97804.03;4253679;33;20046;-76
2022/12/10 03:21:41;;;;;;;56.30;19.37;;;;;;;0.77;100.00;97802.38;4252748;33;20071;-74
2022/12/10 03:24:10;;;;;;;34.03;12.77;;;;;;;0.75;100.00;97794.66;4236816;33;20213;-73
2022/12/10 03:26:40;;;;;;;34.00;12.25;;;;;;;0.62;100.00;97806.13;4233666;33;20034;-75
2022/12/10 03:29:13;;;;;;;46.40;16.65;;;;;;;0.65;100.00;97805.69;4228715;33;20046;-74
2022/12/10 03:31:41;;;;;;;47.47;15.00;;;;;;;0.34;100.00;97762.34;4223764;34;20050;-73
2022/12/10 03:34:10;;;;;;;44.58;18.75;;;;;;;0.38;100.00;97772.50;4219952;34;20167;-74
2022/12/10 03:36:38;;;;;;;63.13;20.17;;;;;;;0.18;100.00;97762.88;4222288;34;20363;-74
2022/12/10 03:39:05;;;;;;;44.17;15.73;;;;;;;0.59;100.00;97795.16;4222476;33;20128;-74
2022/12/10 03:41:32;;;;;;;53.97;19.17;;;;;;;0.43;100.00;97770.03;4223543;34;20057;-73
2022/12/10 03:43:59;;;;;;;52.92;18.60;;;;;;;0.70;100.00;97782.03;4236839;33;20054;-74
2022/12/10 03:46:28;;;;;;;35.90;14.02;;;;;;;0.57;100.00;97782.13;4235924;33;20046;-72
2022/12/10 03:48:56;;;;;;;57.80;18.42;;;;;;;0.26;100.00;97773.19;4209542;34;20047;-73
2022/12/10 03:51:22;;;;;;;58.60;19.17;;;;;;;0.61;100.00;97815.13;4209275;34;20068;-74
2022/12/10 03:53:49;;;;;;;52.62;19.12;;;;;;;0.69;100.00;97817.50;4208185;34;20158;-73
2022/12/10 03:56:19;;;;;;;55.03;15.68;;;;;;;0.71;100.00;97810.16;4221282;34;20108;-73
2022/12/10 03:58:46;;;;;;;56.00;17.83;;;;;;;0.56;100.00;97809.66;4218618;34;20885;-73
2022/12/10 04:01:14;;;;;;;60.58;20.70;;;;;;;0.47;100.00;97774.66;4221843;34;20072;-73
2022/12/10 04:03:42;;;;;;;69.90;21.37;;;;;;;0.46;100.00;97778.38;4221999;34;20082;-73
2022/12/10 04:06:11;;;;;;;36.92;14.23;;;;;;;0.71;100.00;97815.44;4179519;34;20056;-73
2022/12/10 04:08:38;;;;;;;32.97;11.25;;;;;;;0.49;100.00;97816.84;4181716;34;20133;-73
2022/12/10 04:11:07;;;;;;;54.08;18.98;;;;;;;0.20;100.00;97824.34;4181973;34;20083;-73
2022/12/10 04:16:28;;;;;;;42.47;16.12;;;;;;;0.23;100.00;97801.94;4177858;34;20124;-74
2022/12/10 04:19:06;;;;;;;65.37;21.15;;;;;;;0.08;100.00;97836.63;4171838;34;20102;-74
2022/12/10 04:27:12;;;;;;;53.08;18.25;;;;;;;0.31;100.00;97842.22;4179184;34;20055;-73
2022/12/10 04:29:39;;;;;;;41.33;14.98;;;;;;;0.12;100.00;97806.06;4202340;34;20489;-74
2022/12/10 04:32:06;;;;;;;56.50;19.30;;;;;;;0.23;100.00;97834.50;4211191;34;20035;-74
2022/12/10 04:34:33;;;;;;;54.03;18.73;;;;;;;0.25;100.00;97843.03;4211769;34;20051;-74
2022/12/10 04:37:01;;;;;;;69.82;22.87;;;;;;;0.38;100.00;97836.06;4226284;33;20068;-73
2022/12/10 04:39:27;;;;;;;37.08;11.90;;;;;;;0.53;100.00;97844.53;4253182;33;20082;-74
2022/12/10 04:41:54;;;;;;;62.15;20.42;;;;;;;0.15;100.00;97805.66;4239519;33;20439;-74
2022/12/10 04:44:20;;;;;;;56.60;20.02;;;;;;;0.57;100.00;97843.06;4237909;33;20042;-74
2022/12/10 04:46:47;;;;;;;66.28;19.80;;;;;;;0.26;100.00;97818.22;4239863;33;20104;-74
2022/12/10 04:49:15;;;;;;;38.95;15.43;;;;;;;0.27;100.00;97809.25;4238275;33;20190;-73
2022/12/10 04:51:42;;;;;;;51.28;18.95;;;;;;;0.26;100.00;97834.09;4239100;33;20054;-74
2022/12/10 04:54:09;;;;;;;72.10;22.42;;;;;;;0.23;100.00;97839.81;4239532;33;20125;-74
2022/12/10 04:56:36;;;;;;;72.50;21.23;;;;;;;0.47;100.00;97848.84;4239856;33;20185;-74
2022/12/10 04:59:04;;;;;;;72.93;21.65;;;;;;;0.60;100.00;97849.78;4236412;33;20046;-74
2022/12/10 05:01:30;;;;;;;50.78;17.30;;;;;;;0.43;100.00;97841.53;4239186;33;20276;-74
2022/12/10 05:03:59;;;;;;;50.33;16.58;;;;;;;0.32;100.00;97827.94;4239392;33;20455;-74
2022/12/10 05:06:26;;;;;;;76.57;22.00;;;;;;;0.48;100.00;97839.03;4238852;33;20776;-74
2022/12/10 05:08:53;;;;;;;80.53;22.85;;;;;;;0.51;100.00;97830.66;4238850;33;20068;-73
2022/12/10 05:11:22;;;;;;;56.63;16.98;;;;;;;0.45;100.00;97834.19;4235948;33;20061;-73
2022/12/10 05:13:49;;;;;;;42.05;14.55;;;;;;;0.52;100.00;97837.59;4239505;33;20059;-73
2022/12/10 05:16:18;;;;;;;62.60;17.17;;;;;;;0.11;100.00;97817.66;4239262;33;20047;-73
2022/12/10 05:18:45;;;;;;;38.40;12.13;;;;;;;0.11;100.00;97809.72;4239709;33;20452;-73
2022/12/10 05:21:14;;;;;;;55.58;16.40;;;;;;;0.18;100.00;97843.09;4239160;33;20054;-73
2022/12/10 05:23:43;;;;;;;62.47;18.25;;;;;;;0.22;100.00;97814.34;4236294;33;20075;-73
2022/12/10 05:26:18;;;;;;;71.00;20.90;;;;;;;0.23;100.00;97812.53;4238933;33;20054;-73
2022/12/10 05:28:48;;;;;;;59.53;20.08;;;;;;;0.24;100.00;97825.56;4247046;33;20041;-74
2022/12/10 05:31:18;;;;;;;34.70;12.55;;;;;;;0.46;100.00;97864.94;4251579;33;20070;-73
2022/12/10 05:33:46;;;;;;;62.30;21.25;;;;;;;0.11;100.00;97852.09;4242811;33;20054;-73
2022/12/10 05:36:13;;;;;;;68.00;21.67;;;;;;;0.08;100.00;97841.91;4239522;33;20181;-73
2022/12/10 05:38:41;;;;;;;85.40;24.23;;;;;;;0.17;100.00;97845.94;4238640;33;20047;-73
2022/12/10 05:41:16;;;;;;;79.43;23.05;;;;;;;0.52;100.00;97879.97;4238856;33;20090;-73
2022/12/10 05:43:44;;;;;;;82.37;26.05;;;;;;;0.60;100.00;97877.06;4238343;33;20059;-73
2022/12/10 05:46:19;;;;;;;75.68;23.50;;;;;;;0.60;100.00;97887.66;4243512;33;20072;-73
2022/12/10 05:48:46;;;;;;;55.90;17.85;;;;;;;0.44;100.00;97846.59;4253165;33;20042;-73
2022/12/10 05:51:16;;;;;;;63.40;19.80;;;;;;;0.37;100.00;97877.62;4253174;33;20392;-73
2022/12/10 05:53:43;;;;;;;63.25;18.85;;;;;;;0.49;100.00;97888.34;4254880;33;20042;-73
2022/12/10 05:56:12;;;;;;;60.10;19.48;;;;;;;0.45;100.00;97890.63;4255055;33;20095;-73
2022/12/10 05:58:40;;;;;;;70.70;18.25;;;;;;;0.42;100.00;97895.53;4254165;33;20050;-74
2022/12/10 06:01:10;;;;;;;34.58;13.95;;;;;;;0.28;100.00;97895.56;4252585;33;20435;-73
2022/12/10 06:03:37;;;;;;;57.38;17.90;;;;;;;0.21;100.00;97896.63;4255113;33;20080;-74
2022/12/10 06:06:04;;;;;;;63.63;19.70;;;;;;;-0.14;100.00;97852.81;4254258;33;20072;-73
2022/12/10 06:08:32;;;;;;;42.62;14.93;;;;;;;0.25;100.00;97901.28;4255096;33;20071;-73
2022/12/10 06:11:06;;;;;;;59.28;18.92;;;;;;;0.10;100.00;97892.84;4253616;33;20046;-73
2022/12/10 06:13:33;;;;;;;63.10;19.23;;;;;;;0.16;100.00;97849.59;4254901;33;20974;-74
2022/12/10 06:16:08;;;;;;;47.78;16.25;;;;;;;0.20;100.00;97893.19;4254911;33;20054;-73
2022/12/10 06:18:34;;;;;;;33.85;10.88;;;;;;;0.06;100.00;97865.16;4253194;33;20055;-74
2022/12/10 06:21:06;;;;;;;57.90;18.02;;;;;;;-0.10;100.00;97856.66;4252131;33;20038;-74
2022/12/10 06:23:34;;;;;;;61.05;18.73;;;;;;;0.18;100.00;97887.28;4250775;33;20046;-74
2022/12/10 06:26:21;;;;;;;56.30;19.48;;;;;;;0.29;100.00;97897.22;4252675;33;20038;-75
2022/12/10 06:28:49;;;;;;;50.10;14.65;;;;;;;0.22;100.00;97896.41;4251574;33;20517;-74
2022/12/10 06:31:16;;;;;;;48.70;16.42;;;;;;;-0.01;100.00;97897.75;4245213;33;20084;-74
2022/12/10 06:33:45;;;;;;;44.50;15.35;;;;;;;0.20;100.00;97903.78;4245872;33;20038;-73
2022/12/10 06:36:13;;;;;;;23.38;8.43;;;;;;;-0.28;100.00;97875.03;4246629;33;20081;-74
2022/12/10 06:38:40;;;;;;;47.28;16.17;;;;;;;-0.09;100.00;97890.03;4241204;33;20054;-74
2022/12/10 06:41:08;;;;;;;62.03;20.98;;;;;;;-0.27;100.00;97861.59;4247130;33;20060;-74
2022/12/10 06:43:36;;;;;;;35.20;10.65;;;;;;;-0.18;100.00;97859.53;4251223;33;20068;-74
2022/12/10 06:46:06;;;;;;;48.63;17.75;;;;;;;-0.03;100.00;97899.00;4249084;33;20125;-74
2022/12/10 06:48:33;;;;;;;47.60;15.85;;;;;;;0.23;100.00;97902.56;4249973;33;20054;-75
2022/12/10 06:51:00;;;;;;;61.03;20.73;;;;;;;-0.20;100.00;97882.75;4240087;33;20050;-74
2022/12/10 06:53:26;;;;;;;59.25;20.70;;;;;;;-0.15;100.00;97869.69;4237611;33;20056;-75
2022/12/10 06:55:52;;;;;;;37.42;11.38;;;;;;;0.10;100.00;97903.41;4239482;33;20057;-74
2022/12/10 06:58:19;;;;;;;59.90;19.65;;;;;;;-0.15;100.00;97903.28;4240184;33;20043;-74
2022/12/10 07:00:45;;;;;;;38.05;13.07;;;;;;;0.06;100.00;97910.13;4247034;33;20042;-74
2022/12/10 07:03:12;;;;;;;15.95;5.90;;;;;;;-0.33;100.00;97878.31;4251636;33;20138;-73
2022/12/10 07:05:38;;;;;;;50.92;18.70;;;;;;;-0.21;100.00;97923.44;4224158;34;21051;-75
2022/12/10 07:08:05;;;;;;;30.27;12.15;;;;;;;0.04;100.00;97909.53;4223033;34;20194;-74
2022/12/10 07:10:31;;;;;;;56.35;20.75;;;;;;;0.10;100.00;97908.72;4223713;34;20110;-74
2022/12/10 07:12:58;;;;;;;31.35;11.48;;;;;;;0.01;100.00;97920.53;4221935;33;20086;-74
2022/12/10 07:15:24;;;;;;;31.10;11.30;;;;;;;-0.01;100.00;97899.59;4193881;34;20039;-73
2022/12/10 07:17:51;;;;;;;56.65;17.95;;;;;;;-0.15;100.00;97912.03;4194131;34;20074;-74
2022/12/10 07:20:18;;;;;;;58.17;20.50;;;;;;;-0.04;100.00;97908.75;4195019;34;20455;-74
2022/12/10 07:22:45;;;;;;;46.33;16.05;;;;;;;-0.10;100.00;97888.41;4195720;34;20073;-74
2022/12/10 07:25:11;;;;;;;30.05;9.57;;;;;;;0.05;100.00;97916.44;4195631;34;20043;-74
2022/12/10 07:27:38;;;;;;;65.93;20.33;;;;;;;-0.31;100.00;97880.75;4166896;34;20087;-74
2022/12/10 07:30:04;;;;;;;45.38;16.67;;;;;;;-0.02;100.00;97921.75;4168594;34;20049;-74
2022/12/10 07:32:31;;;;;;;39.17;12.77;;;;;;;0.08;100.00;97902.78;4167632;34;20185;-74
2022/12/10 07:34:57;;;;;;;36.20;15.00;;;;;;;-0.09;100.00;97911.22;4168565;34;20434;-75
2022/12/10 07:37:24;;;;;;;56.83;19.45;;;;;;;0.01;100.00;97915.25;4161656;34;20047;-74
2022/12/10 07:39:50;;;;;;;37.47;15.13;;;;;;;0.03;100.00;97907.91;4167948;34;20053;-73
2022/12/10 07:42:17;;;;;;;24.15;8.43;;;;;;;-0.22;100.00;97887.44;4168624;34;20376;-74
2022/12/10 07:44:43;;;;;;;60.12;18.12;;;;;;;-0.09;100.00;97905.91;4167881;34;20066;-73
2022/12/10 07:47:10;;;;;;;44.38;17.37;;;;;;;0.14;100.00;97915.19;4175729;34;20040;-72
2022/12/10 07:49:38;;;;;;;45.83;17.98;;;;;;;0.26;100.00;97918.81;4181353;34;20054;-72
2022/12/10 07:52:08;;;;;;;31.27;11.82;;;;;;;0.16;100.00;97908.69;4182756;34;20059;-73
2022/12/10 07:54:36;;;;;;;55.88;17.92;;;;;;;-0.02;100.00;97896.13;4182114;34;20043;-76
2022/12/10 07:57:03;;;;;;;17.65;8.73;;;;;;;0.18;100.00;97900.53;4181321;34;20037;-73
2022/12/10 07:59:31;;;;;;;50.95;16.85;;;;;;;-0.15;100.00;97906.75;4180636;34;20079;-72
2022/12/10 08:02:01;;;;;;;47.25;17.92;;;;;;;0.08;100.00;97906.28;4181337;34;20156;-74
2022/12/10 08:04:29;;;;;;;61.97;18.45;;;;;;;0.02;100.00;97917.69;4187575;34;20069;-74
2022/12/10 08:06:56;;;;;;;41.05;17.83;;;;;;;0.28;100.00;97922.06;4210918;34;20035;-74
2022/12/10 08:09:22;;;;;;;48.50;17.17;;;;;;;0.26;100.00;97925.97;4212058;34;20342;-74
2022/12/10 08:11:49;;;;;;;49.85;17.95;;;;;;;0.31;100.00;97921.63;4209962;34;20061;-73
2022/12/10 08:14:15;;;;;;;32.78;13.48;;;;;;;0.26;100.00;97924.12;4211849;34;20191;-73
2022/12/10 08:16:42;;;;;;;40.22;15.05;;;;;;;0.04;100.00;97930.72;4211710;34;20053;-73
2022/12/10 08:19:08;;;;;;;45.40;18.00;;;;;;;0.06;100.00;97933.97;4212167;34;20031;-73
2022/12/10 08:21:35;;;;;;;46.22;16.95;;;;;;;0.16;100.00;97931.66;4210754;34;20151;-73
2022/12/10 08:24:01;;;;;;;41.65;16.15;;;;;;;0.14;100.00;97931.06;4192727;34;20466;-73
2022/12/10 08:26:31;;;;;;;32.63;15.25;;;;;;;0.20;100.00;97930.25;4197556;34;20108;-74
2022/12/10 08:28:57;;;;;;;46.45;16.77;;;;;;;0.32;100.00;97923.28;4195334;34;20028;-74
2022/12/10 08:36:31;;;;;;;49.70;17.08;;;;;;;-0.01;100.00;97903.03;4195397;34;20083;-73
2022/12/10 08:38:57;;;;;;;17.17;6.65;;;;;;;0.26;100.00;97929.41;4195290;34;20127;-73
2022/12/10 08:41:24;;;;;;;36.28;13.62;;;;;;;0.16;100.00;97934.31;4197969;34;20040;-74
2022/12/10 08:43:52;;;;;;;43.72;14.98;;;;;;;0.15;100.00;97938.00;4195181;34;20069;-73
2022/12/10 08:46:20;;;;;;;51.13;17.50;;;;;;;0.18;100.00;97940.25;4197782;34;20069;-73
2022/12/10 08:48:46;;;;;;;41.72;16.52;;;;;;;0.29;100.00;97939.59;4186341;34;20035;-74
2022/12/10 08:51:15;;;;;;;31.55;14.70;;;;;;;0.16;100.00;97919.28;4197168;34;20051;-73
2022/12/10 08:53:42;;;;;;;27.13;13.13;;;;;;;0.17;100.00;97920.87;4209812;34;20039;-73
2022/12/10 08:56:09;;;;;;;37.90;15.10;;;;;;;-0.01;100.00;97924.19;4213225;34;20425;-73
2022/12/10 08:58:36;;;;;;;46.33;16.55;;;;;;;0.02;100.00;97923.00;4211324;34;20886;-73
2022/12/10 09:01:12;;;;;;;43.90;16.52;;;;;;;0.07;100.00;97930.31;4215128;34;20057;-73
2022/12/10 09:03:38;;;;;;;46.00;16.37;;;;;;;0.03;100.00;97902.63;4224942;34;20053;-73
2022/12/10 09:06:08;;;;;;;49.70;18.83;;;;;;;0.20;100.00;97924.94;4223138;34;20056;-73
2022/12/10 09:08:34;;;;;;;33.55;14.77;;;;;;;0.12;100.00;97906.66;4222949;34;20073;-73
2022/12/10 09:11:09;;;;;;;44.83;17.20;;;;;;;0.06;100.00;97926.03;4221481;34;20471;-74
2022/12/10 09:13:36;;;;;;;54.13;19.05;;;;;;;0.32;100.00;97935.69;4222688;34;20065;-74
2022/12/10 09:16:02;;;;;;;45.80;16.65;;;;;;;0.10;100.00;97911.34;4221601;34;20193;-75
2022/12/10 09:18:29;;;;;;;15.95;7.90;;;;;;;0.35;100.00;97928.16;4220574;33;20562;-76
2022/12/10 09:20:55;;;;;;;41.58;16.00;;;;;;;0.38;100.00;97936.69;4221575;34;20448;-75
2022/12/10 09:23:22;;;;;;;38.70;15.43;;;;;;;0.40;100.00;97935.47;4215393;34;20094;-76
2022/12/10 09:25:49;;;;;;;52.22;18.30;;;;;;;0.08;100.00;97906.28;4207241;34;20098;-77
2022/12/10 09:28:15;;;;;;;24.48;11.43;;;;;;;0.09;100.00;97913.16;4221761;34;20064;-77
2022/12/10 09:30:42;;;;;;;48.70;17.50;;;;;;;0.34;100.00;97945.06;4223209;33;20069;-77
2022/12/10 09:33:08;;;;;;;39.25;13.62;;;;;;;0.49;100.00;97939.47;4220146;33;20453;-77
2022/12/10 09:35:39;;;;;;;50.63;18.58;;;;;;;0.31;100.00;97937.53;4220038;34;20030;-78
2022/12/10 09:38:05;;;;;;;34.90;13.88;;;;;;;0.60;100.00;97945.94;4217990;34;20069;-76
2022/12/10 09:40:47;;;;;;;53.90;17.67;;;;;;;0.08;100.00;97884.25;4217586;34;20116;-76
2022/12/10 09:43:46;;;;;;;46.47;17.77;;;;;;;0.71;100.00;97947.91;4223581;33;20039;-76
2022/12/10 09:46:24;;;;;;;43.97;16.17;;;;;;;0.80;100.00;97950.31;4219485;33;20112;-76
2022/12/10 09:49:19;;;;;;;50.88;18.75;;;;;;;0.37;100.00;97951.78;4237267;33;20039;-76
2022/12/10 09:51:46;;;;;;;40.45;17.12;;;;;;;0.46;100.00;97949.69;4238162;33;20444;-76
2022/12/10 09:54:30;;;;;;;52.10;17.37;;;;;;;0.50;100.00;97940.31;4238484;33;20078;-77
2022/12/10 09:57:00;;;;;;;50.88;18.17;;;;;;;0.82;100.00;97938.50;4239501;33;20042;-76
2022/12/10 09:59:43;;;;;;;49.88;16.60;;;;;;;0.57;100.00;97940.28;4233216;33;20039;-76
2022/12/10 10:02:23;;;;;;;41.85;16.35;;;;;;;0.61;100.00;97937.00;4244798;33;20372;-76
2022/12/10 10:04:54;;;;;;;26.35;9.80;;;;;;;0.64;100.00;97936.56;4246783;33;20084;-76
2022/12/10 10:07:24;;;;;;;45.00;16.02;;;;;;;0.58;100.00;97916.22;4245273;33;20152;-77
2022/12/10 10:09:57;;;;;;;41.30;13.48;;;;;;;0.54;100.00;97922.94;4246564;33;20421;-77
2022/12/10 10:12:26;;;;;;;51.63;17.87;;;;;;;0.63;100.00;97913.72;4248461;33;20156;-77
2022/12/10 10:14:53;;;;;;;26.83;9.10;;;;;;;0.54;100.00;97909.72;4245492;33;20437;-77
2022/12/10 10:17:45;;;;;;;60.38;18.80;;;;;;;0.36;100.00;97886.59;4245865;33;20127;-77
2022/12/10 10:20:13;;;;;;;52.60;17.58;;;;;;;0.68;100.00;97898.00;4248936;33;20076;-76
2022/12/10 10:22:42;;;;;;;32.10;13.48;;;;;;;0.50;100.00;97858.19;4221471;34;20385;-77
2022/12/10 10:25:15;;;;;;;27.37;10.02;;;;;;;0.54;100.00;97894.66;4220268;34;20121;-77
2022/12/10 10:27:41;;;;;;;29.27;11.73;;;;;;;0.20;100.00;97861.41;4219912;34;20138;-77
2022/12/10 10:30:18;;;;;;;24.33;10.50;;;;;;;0.35;100.00;97895.53;4216828;34;20045;-77
2022/12/10 10:32:56;;;;;;;56.55;20.70;;;;;;;0.31;100.00;97889.06;4216155;34;20046;-77
2022/12/10 10:35:33;;;;;;;17.35;9.10;;;;;;;0.54;100.00;97888.50;4217190;34;20423;-77
2022/12/10 10:38:13;;;;;;;30.23;11.45;;;;;;;0.55;100.00;97884.84;4203017;34;20047;-75
2022/12/10 10:40:42;;;;;;;37.38;13.55;;;;;;;0.55;100.00;97879.56;4208871;34;20030;-77
2022/12/10 10:43:28;;;;;;;22.65;9.35;;;;;;;0.32;100.00;97853.59;4188950;34;20057;-76
2022/12/10 10:46:01;;;;;;;35.90;14.07;;;;;;;0.67;100.00;97888.44;4186689;34;20028;-76
2022/12/10 10:48:28;;;;;;;34.33;12.75;;;;;;;0.44;100.00;97888.19;4191311;34;20537;-76
2022/12/10 10:51:06;;;;;;;29.50;13.77;;;;;;;0.33;100.00;97881.72;4188184;34;20023;-75
2022/12/10 10:53:39;;;;;;;46.13;15.57;;;;;;;0.17;100.00;97851.25;4191338;34;20047;-76
2022/12/10 10:56:11;;;;;;;28.87;11.55;;;;;;;0.41;100.00;97880.66;4201599;34;20031;-76
2022/12/10 10:58:50;;;;;;;45.42;15.68;;;;;;;0.52;100.00;97890.56;4204321;34;20177;-77
2022/12/10 11:01:16;;;;;;;29.33;12.10;;;;;;;0.20;100.00;97848.19;4207466;34;20047;-75
2022/12/10 11:03:48;;;;;;;25.90;9.55;;;;;;;0.34;100.00;97888.63;4215826;34;20080;-75
2022/12/10 11:06:15;;;;;;;46.37;14.13;;;;;;;0.09;100.00;97849.66;4218625;34;20375;-76
2022/12/10 11:08:46;;;;;;;32.28;11.85;;;;;;;0.33;100.00;97892.31;4229013;33;20030;-76
2022/12/10 11:11:20;;;;;;;8.85;3.80;;;;;;;0.35;100.00;97885.78;4241836;33;20050;-75
2022/12/10 11:13:47;;;;;;;33.05;13.35;;;;;;;0.57;100.00;97885.44;4245451;33;20194;-77
2022/12/10 11:16:18;;;;;;;30.15;11.82;;;;;;;0.26;100.00;97887.03;4245308;33;20022;-76
2022/12/10 11:19:19;;;;;;;12.50;6.60;;;;;;;0.36;100.00;97882.09;4243851;33;20097;-76
2022/12/10 11:21:46;;;;;;;12.95;7.45;;;;;;;0.40;100.00;97884.31;4246944;33;20102;-77
2022/12/10 11:24:17;;;;;;;29.25;11.32;;;;;;;0.23;100.00;97870.78;4246728;33;20361;-77
2022/12/10 11:27:02;;;;;;;28.62;11.90;;;;;;;0.36;100.00;97866.19;4221070;34;20458;-76
2022/12/10 11:29:57;;;;;;;40.67;14.35;;;;;;;0.37;100.00;97872.34;4209007;34;20091;-76
2022/12/10 11:32:35;;;;;;;24.12;11.75;;;;;;;0.50;100.00;97871.44;4202909;34;20462;-76
2022/12/10 11:35:28;;;;;;;34.42;12.37;;;;;;;0.55;100.00;97866.31;4202804;34;20114;-76
2022/12/10 11:38:20;;;;;;;42.13;14.43;;;;;;;0.15;100.00;97842.72;4202370;34;20076;-77
2022/12/10 11:41:10;;;;;;;;;;;;;;;0.65;100.00;97874.59;4213158;34;20188;-77
2022/12/10 11:43:45;;;;;;;32.00;11.10;;;;;;;0.34;100.00;97873.56;4203980;34;19954;-76
2022/12/10 11:46:21;;;;;;;37.40;13.98;;;;;;;0.14;100.00;97880.78;4217426;34;20042;-77
2022/12/10 11:49:09;;;;;;;42.85;14.60;;;;;;;0.50;100.00;97887.34;4362482;28;20093;-77
2022/12/10 11:52:02;;;;;;;37.58;12.63;;;;;;;0.50;100.00;97888.13;4249239;33;20373;-78
2022/12/10 11:54:33;;;;;;;39.40;12.52;;;;;;;0.48;100.00;97894.66;4242716;33;20388;-76
2022/12/10 11:57:13;;;;;;;33.78;13.10;;;;;;;0.50;100.00;97880.19;4226240;34;20072;-77
2022/12/10 12:03:15;;;;;;;50.15;16.08;;;;;;;0.35;100.00;97875.19;4192659;29;20059;-76
2022/12/10 12:06:03;;;;;;;45.65;16.77;;;;;;;0.31;100.00;97879.28;4206740;34;20115;-75
2022/12/10 12:08:44;;;;;;;40.78;14.52;;;;;;;0.24;100.00;97881.16;4207272;34;20032;-75
2022/12/10 12:11:17;;;;;;;44.70;11.43;;;;;;;0.55;100.00;97924.59;4203825;34;20051;-74
2022/12/10 12:13:57;;;;;;;34.00;13.85;;;;;;;0.08;100.00;97892.22;4205561;34;20071;-74
2022/12/10 12:16:56;;;;;;;38.85;15.23;;;;;;;0.48;100.00;97927.28;4207697;34;20547;-74
2022/12/10 12:19:31;;;;;;;39.47;13.68;;;;;;;0.57;100.00;97898.69;4198307;34;20038;-74
2022/12/10 12:22:11;;;;;;;51.72;16.98;;;;;;;0.60;100.00;97887.66;4220370;34;20049;-73
2022/12/10 12:24:41;;;;;;;40.35;13.98;;;;;;;0.67;100.00;97916.75;4220144;34;20061;-75
2022/12/10 12:27:13;;;;;;;37.05;13.02;;;;;;;0.35;100.00;97891.09;4210407;34;20050;-74
2022/12/10 12:30:15;;;;;;;47.88;17.40;;;;;;;0.50;100.00;97895.28;4224579;33;20052;-73
2022/12/10 12:33:10;;;;;;;43.47;14.02;;;;;;;0.61;100.00;97897.25;4195136;34;20063;-74
2022/12/10 12:35:44;;;;;;;40.28;14.25;;;;;;;0.59;100.00;97896.66;4199603;34;20068;-74
2022/12/10 12:38:26;;;;;;;56.72;16.30;;;;;;;0.75;100.00;97932.44;4200300;34;20075;-75
2022/12/10 12:40:56;;;;;;;36.83;13.23;;;;;;;0.76;100.00;97917.34;4200016;34;20036;-73
2022/12/10 12:43:36;;;;;;;48.17;16.17;;;;;;;0.39;100.00;97890.66;4198124;34;21002;-74
2022/12/10 12:46:15;;;;;;;47.25;15.60;;;;;;;0.76;100.00;97922.63;4199101;34;20051;-75
2022/12/10 12:48:54;;;;;;;45.33;15.57;;;;;;;0.80;100.00;97918.53;4197295;34;20213;-73
2022/12/10 12:51:33;;;;;;;42.10;14.82;;;;;;;0.70;100.00;97919.81;4199167;34;20073;-74
2022/12/10 12:54:01;;;;;;;32.83;13.10;;;;;;;0.83;100.00;97926.88;4197575;34;20359;-73
2022/12/10 12:56:57;;;;;;;28.73;11.05;;;;;;;0.59;100.00;97923.16;4196257;34;20055;-73
2022/12/10 12:59:37;;;;;;;43.95;15.98;;;;;;;0.65;100.00;97922.28;4211233;33;20043;-73
2022/12/10 13:02:39;;;;;;;20.48;8.23;;;;;;;0.68;100.00;97932.44;4219555;34;20662;-74
2022/12/10 13:05:18;;;;;;;21.45;7.85;;;;;;;0.27;100.00;97899.28;4243982;33;20157;-75
2022/12/10 13:08:04;;;;;;;47.15;13.60;;;;;;;0.53;100.00;97934.59;4245065;33;20046;-75
2022/12/10 13:10:59;;;;;;;38.85;15.90;;;;;;;0.42;100.00;97932.59;4248401;33;20421;-74
2022/12/10 13:13:38;;;;;;;37.28;14.20;;;;;;;0.56;100.00;97939.47;4246580;33;20455;-73
2022/12/10 13:16:36;;;;;;;41.08;15.77;;;;;;;0.68;100.00;97927.16;4246771;33;20046;-74
2022/12/10 13:19:18;;;;;;;47.83;17.42;;;;;;;0.79;100.00;97924.88;4247445;33;20153;-74
2022/12/10 13:21:51;;;;;;;43.95;15.35;;;;;;;0.79;100.00;97928.31;4249727;33;20093;-73
2022/12/10 13:24:35;;;;;;;47.15;16.37;;;;;;;0.64;100.00;97931.28;4253928;33;20472;-74
2022/12/10 13:27:04;;;;;;;53.95;17.73;;;;;;;0.79;100.00;97927.50;4224509;33;20069;-76
2022/12/10 13:29:46;;;;;;;39.70;13.25;;;;;;;0.71;100.00;97939.97;4222152;34;20424;-77
2022/12/10 13:32:16;;;;;;;49.65;16.02;;;;;;;0.60;100.00;97935.34;4207192;34;20205;-76
2022/12/10 13:34:43;;;;;;;35.95;14.45;;;;;;;0.43;100.00;97913.03;4206905;34;20138;-76
2022/12/10 13:37:13;;;;;;;46.72;15.98;;;;;;;0.55;100.00;97932.53;4207852;34;20460;-76
2022/12/10 13:39:52;;;;;;;50.78;15.30;;;;;;;0.75;100.00;97936.91;4209520;34;20081;-75
2022/12/10 13:45:34;;;;;;;45.50;17.58;;;;;;;0.58;100.00;97940.06;4169510;34;20055;-76
2022/12/10 13:48:22;;;;;;;20.73;8.93;;;;;;;0.59;100.00;97928.44;4168554;34;20044;-77
2022/12/10 13:51:02;;;;;;;49.38;17.58;;;;;;;0.47;100.00;97956.63;4168809;34;20074;-75
2022/12/10 13:53:48;;;;;;;18.87;7.43;;;;;;;0.27;100.00;97904.56;4171361;34;20044;-77
2022/12/10 13:56:27;;;;;;;41.22;13.48;;;;;;;0.44;100.00;97936.66;4168057;34;20539;-75